createdAt,value
2017-11-15T00:00:05.969Z,18.93
2017-11-15T00:02:33.957Z,21.33
2017-11-15T00:05:03.167Z,16.07
2017-11-15T00:07:31.410Z,18.90
2017-11-15T00:09:59.674Z,18.40
2017-11-15T00:12:28.674Z,17.47
2017-11-15T00:14:57.718Z,18.47
2017-11-15T00:17:26.493Z,18.60
2017-11-15T00:19:55.514Z,18.43
2017-11-15T00:22:35.762Z,16.13
2017-11-15T00:25:04.010Z,18.37
2017-11-15T00:27:32.254Z,18.47
2017-11-15T00:30:01.285Z,17.17
2017-11-15T00:32:29.522Z,17.73
2017-11-15T00:34:58.562Z,18.57
2017-11-15T00:37:26.805Z,19.80
2017-11-15T00:39:55.066Z,18.20
2017-11-15T00:42:24.078Z,20.23
2017-11-15T00:44:52.341Z,19.57
2017-11-15T00:47:21.350Z,18.90
2017-11-15T00:49:49.606Z,18.30
2017-11-15T00:52:18.629Z,19.30
2017-11-15T00:54:46.894Z,17.93
2017-11-15T00:57:15.130Z,18.60
2017-11-15T00:59:43.374Z,16.90
2017-11-15T01:02:11.634Z,19.40
2017-11-15T01:04:39.879Z,20.63
2017-11-15T01:07:08.902Z,19.53
2017-11-15T01:09:37.148Z,18.70
2017-11-15T01:12:06.161Z,17.40
2017-11-15T01:14:34.979Z,17.33
2017-11-15T01:17:03.285Z,19.57
2017-11-15T01:19:32.146Z,18.03
2017-11-15T01:22:00.414Z,17.70
2017-11-15T01:24:28.645Z,17.70
2017-11-15T01:26:56.899Z,19.20
2017-11-15T01:29:25.148Z,18.33
2017-11-15T01:31:53.393Z,17.87
2017-11-15T01:34:21.629Z,17.83
2017-11-15T01:36:49.890Z,18.13
2017-11-15T01:39:18.138Z,18.70
2017-11-15T01:41:46.400Z,18.47
2017-11-15T01:44:14.634Z,18.93
2017-11-15T01:46:42.947Z,18.27
2017-11-15T01:49:11.192Z,15.97
2017-11-15T01:51:39.488Z,17.07
2017-11-15T01:54:07.710Z,18.13
2017-11-15T01:56:35.966Z,17.70
2017-11-15T01:59:04.210Z,16.20
2017-11-15T02:01:37.313Z,16.90
2017-11-15T02:04:06.317Z,18.00
2017-11-15T02:06:34.565Z,16.70
2017-11-15T02:09:03.581Z,18.70
2017-11-15T02:11:31.824Z,17.33
2017-11-15T02:14:00.089Z,16.83
2017-11-15T02:16:28.329Z,18.17
2017-11-15T02:18:56.587Z,17.50
2017-11-15T02:21:24.832Z,15.90
2017-11-15T02:23:53.106Z,18.00
2017-11-15T02:26:21.342Z,16.33
2017-11-15T02:28:49.853Z,18.37
2017-11-15T02:31:18.102Z,17.20
2017-11-15T02:33:46.359Z,17.60
2017-11-15T02:36:14.598Z,15.30
2017-11-15T02:38:43.621Z,15.93
2017-11-15T02:41:12.474Z,16.60
2017-11-15T02:43:40.754Z,18.60
2017-11-15T02:46:09.111Z,19.60
2017-11-15T02:48:37.382Z,17.23
2017-11-15T02:51:05.665Z,17.17
2017-11-15T02:53:33.938Z,16.23
2017-11-15T02:56:02.201Z,16.03
2017-11-15T02:58:30.512Z,16.13
2017-11-15T03:00:58.772Z,18.40
2017-11-15T03:03:27.053Z,17.17
2017-11-15T03:05:55.305Z,18.63
2017-11-15T03:08:24.344Z,18.40
2017-11-15T03:10:52.587Z,18.00
2017-11-15T03:13:21.698Z,16.97
2017-11-15T03:15:50.019Z,16.73
2017-11-15T03:18:18.269Z,16.77
2017-11-15T03:20:46.549Z,17.60
2017-11-15T03:23:14.806Z,16.63
2017-11-15T03:25:43.853Z,17.10
2017-11-15T03:28:12.121Z,17.57
2017-11-15T03:30:40.429Z,18.10
2017-11-15T03:33:08.721Z,18.53
2017-11-15T03:35:36.997Z,17.87
2017-11-15T03:38:05.256Z,17.23
2017-11-15T03:40:33.519Z,18.13
2017-11-15T03:43:01.781Z,17.97
2017-11-15T03:45:31.026Z,18.80
2017-11-15T03:47:59.284Z,15.47
2017-11-15T03:50:27.578Z,17.40
2017-11-15T03:52:55.932Z,16.43
2017-11-15T03:55:24.965Z,16.30
2017-11-15T03:57:53.256Z,17.17
2017-11-15T04:00:21.534Z,17.13
2017-11-15T04:02:49.803Z,17.80
2017-11-15T04:05:18.081Z,16.50
2017-11-15T04:07:46.424Z,18.13
2017-11-15T04:10:15.513Z,16.60
2017-11-15T04:12:43.793Z,17.30
2017-11-15T04:15:12.072Z,19.40
2017-11-15T04:17:40.343Z,18.87
2017-11-15T04:20:08.703Z,16.50
2017-11-15T04:22:37.812Z,16.80
2017-11-15T04:25:06.113Z,19.23
2017-11-15T04:27:34.378Z,18.17
2017-11-15T04:30:02.659Z,17.50
2017-11-15T04:32:30.936Z,17.77
2017-11-15T04:34:59.205Z,17.73
2017-11-15T04:37:27.496Z,18.40
2017-11-15T04:39:55.759Z,18.97
2017-11-15T04:42:24.043Z,15.90
2017-11-15T04:44:52.306Z,17.97
2017-11-15T04:47:21.338Z,19.07
2017-11-15T04:49:49.593Z,18.20
2017-11-15T04:52:17.876Z,17.90
2017-11-15T04:54:46.124Z,18.13
2017-11-15T04:57:15.347Z,18.40
2017-11-15T04:59:45.193Z,17.40
2017-11-15T05:02:13.485Z,18.40
2017-11-15T05:04:41.738Z,18.30
2017-11-15T05:07:10.055Z,18.47
2017-11-15T05:09:38.344Z,17.63
2017-11-15T05:12:06.608Z,18.00
2017-11-15T05:14:34.928Z,17.63
2017-11-15T05:17:03.204Z,18.07
2017-11-15T05:19:31.557Z,18.53
2017-11-15T05:21:59.828Z,19.20
2017-11-15T05:24:28.092Z,17.80
2017-11-15T05:26:56.409Z,18.13
2017-11-15T05:29:24.655Z,17.97
2017-11-15T05:31:52.948Z,17.60
2017-11-15T05:34:21.251Z,18.03
2017-11-15T05:36:49.561Z,16.70
2017-11-15T05:39:17.824Z,17.00
2017-11-15T05:41:46.085Z,16.80
2017-11-15T05:44:14.362Z,19.57
2017-11-15T05:46:42.617Z,17.50
2017-11-15T05:49:10.929Z,18.60
2017-11-15T05:51:39.387Z,16.33
2017-11-15T05:54:07.648Z,17.57
2017-11-15T05:56:36.693Z,18.87
2017-11-15T05:59:04.985Z,19.70
2017-11-15T06:01:33.243Z,18.30
2017-11-15T06:04:01.529Z,18.30
2017-11-15T06:06:29.835Z,19.83
2017-11-15T06:08:58.206Z,19.33
2017-11-15T06:11:26.486Z,18.80
2017-11-15T06:13:54.806Z,17.50
2017-11-15T06:16:23.086Z,19.43
2017-11-15T06:18:51.441Z,18.93
2017-11-15T06:21:19.797Z,19.63
2017-11-15T06:23:48.009Z,17.53
2017-11-15T06:26:16.384Z,19.93
2017-11-15T06:28:44.664Z,17.93
2017-11-15T06:31:12.905Z,18.17
2017-11-15T06:33:41.189Z,19.93
2017-11-15T06:36:09.381Z,18.87
2017-11-15T06:38:37.649Z,18.60
2017-11-15T06:41:05.904Z,18.70
2017-11-15T06:43:34.958Z,19.10
2017-11-15T06:46:03.220Z,20.07
2017-11-15T06:48:31.493Z,22.00
2017-11-15T06:50:59.800Z,19.70
2017-11-15T06:53:28.091Z,20.10
2017-11-15T06:55:56.366Z,19.40
2017-11-15T06:58:24.623Z,19.00
2017-11-15T07:00:52.927Z,21.17
2017-11-15T07:03:21.205Z,21.00
2017-11-15T07:05:49.484Z,21.90
2017-11-15T07:08:17.728Z,22.27
2017-11-15T07:10:46.766Z,21.30
2017-11-15T07:13:15.408Z,21.80
2017-11-15T07:15:43.860Z,22.20
2017-11-15T07:18:12.111Z,23.37
2017-11-15T07:20:40.383Z,22.93
2017-11-15T07:23:08.644Z,23.07
2017-11-15T07:25:37.784Z,24.40
2017-11-15T07:28:06.035Z,23.07
2017-11-15T07:30:34.352Z,23.60
2017-11-15T07:33:02.612Z,24.90
2017-11-15T07:35:30.912Z,24.53
2017-11-15T07:37:59.155Z,24.67
2017-11-15T07:40:28.200Z,24.80
2017-11-15T07:42:56.475Z,25.37
2017-11-15T07:45:24.746Z,25.20
2017-11-15T07:47:53.008Z,23.90
2017-11-15T07:50:22.144Z,25.00
2017-11-15T07:52:50.640Z,26.97
2017-11-15T07:55:19.016Z,25.03
2017-11-15T07:57:47.275Z,27.13
2017-11-15T08:00:15.966Z,23.73
2017-11-15T08:02:44.244Z,25.57
2017-11-15T08:05:12.553Z,26.23
2017-11-15T08:07:40.961Z,26.60
2017-11-15T08:10:09.208Z,25.30
2017-11-15T08:12:37.501Z,26.67
2017-11-15T08:15:05.752Z,24.20
2017-11-15T08:17:34.058Z,26.07
2017-11-15T08:20:02.317Z,25.17
2017-11-15T08:22:30.632Z,24.53
2017-11-15T08:24:58.892Z,27.20
2017-11-15T08:27:27.165Z,27.77
2017-11-15T08:29:55.468Z,27.80
2017-11-15T08:32:23.744Z,26.47
2017-11-15T08:34:52.006Z,26.27
2017-11-15T08:37:20.304Z,27.50
2017-11-15T08:39:48.567Z,26.87
2017-11-15T08:42:16.852Z,26.23
2017-11-15T08:44:45.187Z,28.57
2017-11-15T08:47:13.537Z,26.20
2017-11-15T08:49:41.796Z,27.07
2017-11-15T08:52:10.072Z,27.03
2017-11-15T08:54:38.320Z,25.87
2017-11-15T08:57:06.659Z,25.27
2017-11-15T08:59:34.909Z,27.67
2017-11-15T09:02:03.175Z,27.97
2017-11-15T09:04:32.204Z,24.73
2017-11-15T09:07:00.502Z,25.57
2017-11-15T09:09:28.771Z,26.17
2017-11-15T09:11:57.031Z,26.37
2017-11-15T09:14:25.303Z,27.03
2017-11-15T09:16:54.329Z,27.03
2017-11-15T09:19:22.642Z,27.33
2017-11-15T09:21:50.888Z,29.10
2017-11-15T09:24:19.195Z,28.93
2017-11-15T09:26:47.483Z,28.43
2017-11-15T09:29:15.754Z,27.20
2017-11-15T09:31:44.009Z,26.07
2017-11-15T09:34:12.288Z,25.93
2017-11-15T09:36:40.548Z,28.13
2017-11-15T09:39:09.652Z,26.60
2017-11-15T09:41:38.669Z,25.57
2017-11-15T09:44:06.942Z,27.57
2017-11-15T09:46:35.252Z,26.80
2017-11-15T09:49:03.525Z,25.83
2017-11-15T09:51:31.788Z,24.37
2017-11-15T09:54:00.061Z,23.57
2017-11-15T09:56:29.089Z,24.60
2017-11-15T09:58:57.386Z,24.83
2017-11-15T10:01:25.632Z,27.47
2017-11-15T10:03:53.903Z,24.33
2017-11-15T10:06:22.942Z,26.73
2017-11-15T10:08:51.228Z,25.00
2017-11-15T10:11:19.489Z,23.10
2017-11-15T10:13:47.788Z,23.03
2017-11-15T10:16:16.040Z,24.67
2017-11-15T10:18:44.297Z,24.27
2017-11-15T10:21:13.342Z,24.40
2017-11-15T10:23:41.627Z,23.27
2017-11-15T10:26:09.896Z,24.83
2017-11-15T10:28:38.196Z,22.70
2017-11-15T10:31:06.468Z,22.93
2017-11-15T10:33:34.717Z,22.87
2017-11-15T10:36:02.989Z,24.57
2017-11-15T10:38:32.030Z,23.90
2017-11-15T10:41:00.305Z,23.50
2017-11-15T10:43:28.555Z,21.70
2017-11-15T10:45:57.587Z,24.17
2017-11-15T10:48:25.845Z,21.00
2017-11-15T10:50:54.117Z,21.60
2017-11-15T10:53:23.156Z,20.43
2017-11-15T10:55:51.436Z,20.97
2017-11-15T10:58:19.720Z,20.97
2017-11-15T11:00:47.997Z,17.67
2017-11-15T11:03:16.260Z,20.17
2017-11-15T11:05:44.541Z,18.40
2017-11-15T11:08:13.555Z,21.40
2017-11-15T11:10:41.831Z,19.40
2017-11-15T11:13:10.080Z,17.53
2017-11-15T11:15:39.125Z,20.37
2017-11-15T11:18:07.385Z,20.00
2017-11-15T11:20:35.677Z,18.90
2017-11-15T11:23:03.927Z,18.70
2017-11-15T11:25:32.971Z,18.20
2017-11-15T11:28:01.219Z,18.60
2017-11-15T11:30:29.532Z,18.00
2017-11-15T11:32:57.809Z,18.03
2017-11-15T11:35:26.091Z,17.73
2017-11-15T11:37:55.196Z,18.70
2017-11-15T11:40:23.450Z,15.97
2017-11-15T11:42:51.769Z,16.00
2017-11-15T11:45:20.009Z,15.43
2017-11-15T11:47:48.292Z,14.60
2017-11-15T11:50:16.595Z,14.60
2017-11-15T11:52:44.896Z,16.27
2017-11-15T11:55:13.153Z,14.00
2017-11-15T11:57:41.440Z,14.17
2017-11-15T12:00:09.723Z,15.20
2017-11-15T12:02:39.046Z,14.77
2017-11-15T12:05:07.312Z,16.57
2017-11-15T12:07:35.597Z,17.13
2017-11-15T12:10:04.796Z,14.93
2017-11-15T12:12:33.177Z,15.77
2017-11-15T12:15:01.447Z,17.50
2017-11-15T12:17:29.746Z,17.43
2017-11-15T12:19:58.013Z,16.60
2017-11-15T12:22:26.313Z,16.87
2017-11-15T12:24:57.748Z,16.77
2017-11-15T12:27:26.152Z,16.80
2017-11-15T12:29:54.529Z,16.97
2017-11-15T12:32:22.809Z,21.93
2017-11-15T12:34:51.094Z,20.43
2017-11-15T12:37:19.472Z,20.30
2017-11-15T12:39:47.733Z,20.80
2017-11-15T12:42:16.137Z,15.43
2017-11-15T12:44:44.431Z,15.43
2017-11-15T12:47:13.397Z,16.77
2017-11-15T12:49:41.688Z,18.60
2017-11-15T12:52:09.935Z,18.03
2017-11-15T12:54:38.227Z,19.23
2017-11-15T12:57:07.253Z,18.70
2017-11-15T12:59:35.526Z,20.00
2017-11-15T13:02:03.783Z,17.87
2017-11-15T13:04:32.096Z,18.53
2017-11-15T13:07:00.358Z,20.50
2017-11-15T13:09:28.680Z,20.13
2017-11-15T13:11:56.940Z,19.67
2017-11-15T13:14:25.219Z,20.37
2017-11-15T13:16:53.497Z,20.43
2017-11-15T13:19:21.901Z,21.73
2017-11-15T13:21:50.149Z,20.30
2017-11-15T13:24:18.425Z,21.30
2017-11-15T13:26:46.686Z,23.70
2017-11-15T13:29:15.725Z,21.93
2017-11-15T13:31:44.972Z,20.80
2017-11-15T13:34:13.311Z,21.93
2017-11-15T13:36:41.578Z,21.20
2017-11-15T13:39:09.861Z,20.40
2017-11-15T13:41:38.124Z,20.43
2017-11-15T13:44:06.442Z,19.10
2017-11-15T13:46:34.729Z,20.30
2017-11-15T13:49:03.011Z,18.93
2017-11-15T13:51:31.271Z,18.53
2017-11-15T13:53:59.555Z,19.80
2017-11-15T13:56:29.373Z,19.63
2017-11-15T13:58:57.672Z,19.73
2017-11-15T14:01:25.942Z,18.80
2017-11-15T14:03:54.202Z,20.03
2017-11-15T14:06:22.505Z,18.03
2017-11-15T14:08:50.786Z,20.17
2017-11-15T14:11:19.069Z,17.53
2017-11-15T14:13:47.320Z,17.47
2017-11-15T14:16:15.636Z,18.07
2017-11-15T14:18:43.904Z,15.17
2017-11-15T14:21:12.193Z,16.43
2017-11-15T14:23:40.489Z,17.50
2017-11-15T14:26:08.857Z,18.00
2017-11-15T14:28:37.121Z,19.27
2017-11-15T14:31:05.395Z,16.80
2017-11-15T14:33:33.672Z,18.27
2017-11-15T14:36:01.981Z,20.53
2017-11-15T14:38:30.255Z,17.50
2017-11-15T14:40:58.532Z,16.67
2017-11-15T14:43:26.795Z,15.60
2017-11-15T14:45:55.081Z,16.50
2017-11-15T14:48:23.389Z,15.53
2017-11-15T14:50:51.659Z,16.47
2017-11-15T14:53:19.947Z,16.57
2017-11-15T14:55:48.221Z,16.77
2017-11-15T14:58:16.520Z,15.63
2017-11-15T15:00:44.796Z,16.03
2017-11-15T15:03:13.080Z,16.43
2017-11-15T15:05:41.362Z,16.87
2017-11-15T15:08:09.627Z,16.80
2017-11-15T15:10:37.932Z,17.20
2017-11-15T15:13:06.200Z,17.67
2017-11-15T15:15:34.485Z,17.10
2017-11-15T15:18:02.786Z,17.10
2017-11-15T15:20:31.052Z,16.70
2017-11-15T15:22:59.323Z,18.33
2017-11-15T15:25:27.577Z,18.70
2017-11-15T15:27:55.856Z,17.53
2017-11-15T15:30:25.006Z,18.20
2017-11-15T15:32:53.293Z,19.37
2017-11-15T15:35:21.534Z,17.07
2017-11-15T15:37:49.803Z,16.73
2017-11-15T15:40:18.219Z,19.17
2017-11-15T15:42:46.520Z,20.40
2017-11-15T15:45:14.765Z,16.63
2017-11-15T15:47:43.037Z,19.63
2017-11-15T15:50:11.285Z,20.10
2017-11-15T15:52:39.684Z,19.33
2017-11-15T15:55:08.700Z,19.40
2017-11-15T15:57:36.975Z,20.57
2017-11-15T16:00:05.226Z,19.53
2017-11-15T16:02:34.263Z,22.70
2017-11-15T16:05:02.562Z,19.90
2017-11-15T16:07:30.838Z,20.60
2017-11-15T16:09:59.084Z,20.33
2017-11-15T16:12:28.224Z,21.17
2017-11-15T16:14:56.482Z,20.23
2017-11-15T16:17:24.750Z,21.47
2017-11-15T16:19:53.019Z,19.40
2017-11-15T16:22:22.163Z,21.60
2017-11-15T16:24:50.445Z,20.60
2017-11-15T16:27:18.703Z,20.90
2017-11-15T16:29:46.963Z,21.57
2017-11-15T16:32:16.784Z,21.03
2017-11-15T16:34:45.068Z,20.37
2017-11-15T16:37:14.090Z,18.90
2017-11-15T16:39:42.396Z,21.73
2017-11-15T16:42:10.702Z,19.57
2017-11-15T16:44:38.952Z,18.93
2017-11-15T16:47:07.297Z,20.37
2017-11-15T16:49:36.336Z,20.50
2017-11-15T16:52:05.160Z,21.90
2017-11-15T16:54:33.409Z,19.80
2017-11-15T16:57:01.671Z,21.67
2017-11-15T16:59:30.876Z,20.30
2017-11-15T17:01:59.661Z,20.07
2017-11-15T17:04:27.944Z,19.80
2017-11-15T17:06:56.255Z,22.30
2017-11-15T17:09:24.537Z,20.63
2017-11-15T17:11:52.788Z,23.57
2017-11-15T17:14:21.090Z,23.03
2017-11-15T17:16:49.423Z,22.40
2017-11-15T17:19:17.767Z,20.53
2017-11-15T17:21:46.021Z,19.43
2017-11-15T17:24:14.306Z,21.10
2017-11-15T17:26:42.569Z,18.87
2017-11-15T17:29:11.592Z,19.90
2017-11-15T17:31:39.844Z,21.13
2017-11-15T17:34:08.876Z,20.37
2017-11-15T17:36:37.141Z,21.67
2017-11-15T17:39:05.451Z,21.33
2017-11-15T17:41:33.721Z,21.30
2017-11-15T17:44:02.013Z,20.60
2017-11-15T17:46:30.396Z,20.83
2017-11-15T17:48:58.869Z,20.73
2017-11-15T17:51:27.159Z,21.27
2017-11-15T17:53:55.411Z,22.10
2017-11-15T17:56:23.722Z,20.80
2017-11-15T17:58:51.975Z,22.30
2017-11-15T18:01:20.238Z,23.37
2017-11-15T18:03:48.483Z,19.20
2017-11-15T18:06:16.848Z,18.87
2017-11-15T18:08:45.104Z,21.80
2017-11-15T18:11:13.401Z,19.27
2017-11-15T18:13:41.653Z,20.70
2017-11-15T18:16:10.689Z,20.30
2017-11-15T18:18:38.940Z,21.43
2017-11-15T18:21:07.218Z,20.53
2017-11-15T18:23:36.255Z,20.50
2017-11-15T18:26:04.520Z,20.00
2017-11-15T18:28:32.816Z,21.20
2017-11-15T18:31:01.107Z,20.20
2017-11-15T18:33:29.349Z,19.83
2017-11-15T18:35:57.624Z,19.57
2017-11-15T18:38:25.937Z,20.50
2017-11-15T18:40:54.229Z,19.60
2017-11-15T18:43:22.484Z,21.03
2017-11-15T18:45:50.737Z,20.30
2017-11-15T18:48:19.772Z,19.77
2017-11-15T18:50:48.024Z,19.63
2017-11-15T18:53:17.878Z,19.07
2017-11-15T18:55:46.140Z,19.37
2017-11-15T18:58:14.454Z,18.20
2017-11-15T19:00:42.724Z,21.23
2017-11-15T19:03:11.002Z,18.43
2017-11-15T19:05:39.266Z,19.37
2017-11-15T19:08:07.529Z,18.33
2017-11-15T19:10:36.563Z,20.33
2017-11-15T19:13:04.849Z,19.60
2017-11-15T19:15:33.112Z,19.90
2017-11-15T19:18:01.426Z,19.50
2017-11-15T19:20:29.695Z,18.43
2017-11-15T19:22:57.974Z,20.07
2017-11-15T19:25:26.257Z,18.00
2017-11-15T19:27:54.544Z,19.33
2017-11-15T19:30:22.805Z,21.00
2017-11-15T19:32:51.078Z,20.43
2017-11-15T19:35:19.329Z,18.73
2017-11-15T19:37:48.367Z,19.17
2017-11-15T19:40:16.629Z,17.77
2017-11-15T19:42:45.682Z,18.30
2017-11-15T19:45:13.952Z,19.47
2017-11-15T19:47:42.227Z,16.43
2017-11-15T19:50:10.508Z,16.90
2017-11-15T19:52:38.760Z,15.10
2017-11-15T19:55:07.742Z,15.10
2017-11-15T19:57:36.764Z,13.87
2017-11-15T20:00:05.030Z,16.70
2017-11-15T20:02:33.276Z,14.70
2017-11-15T20:05:01.654Z,11.87
2017-11-15T20:07:29.887Z,9.80
2017-11-15T20:09:58.152Z,11.00
2017-11-15T20:12:26.465Z,10.30
2017-11-15T20:14:54.743Z,9.70
2017-11-15T20:17:23.345Z,9.10
2017-11-15T20:19:51.612Z,7.67
2017-11-15T20:22:19.857Z,6.93
2017-11-15T20:24:48.904Z,5.00
2017-11-15T20:27:17.175Z,5.10
2017-11-15T20:29:45.468Z,5.70
2017-11-15T20:32:13.716Z,5.40
2017-11-15T20:34:41.970Z,5.00
2017-11-15T20:37:10.985Z,6.10
2017-11-15T20:39:40.122Z,5.60
2017-11-15T20:42:08.404Z,6.10
2017-11-15T20:44:36.669Z,6.27
2017-11-15T20:47:04.917Z,6.67
2017-11-15T20:49:33.961Z,7.53
2017-11-15T20:52:02.231Z,8.00
2017-11-15T20:54:30.492Z,7.70
2017-11-15T20:56:58.745Z,7.07
2017-11-15T20:59:27.084Z,7.10
2017-11-15T21:01:55.334Z,7.60
2017-11-15T21:04:23.845Z,7.17
2017-11-15T21:06:52.900Z,7.60
2017-11-15T21:09:21.910Z,7.83
2017-11-15T21:11:50.178Z,8.23
2017-11-15T21:14:19.252Z,7.60
2017-11-15T21:16:47.515Z,7.00
2017-11-15T21:19:15.761Z,8.30
2017-11-15T21:21:44.012Z,7.43
2017-11-15T21:24:12.262Z,8.20
2017-11-15T21:26:40.529Z,8.67
2017-11-15T21:29:08.768Z,9.10
2017-11-15T21:31:37.800Z,8.67
2017-11-15T21:34:06.077Z,9.97
2017-11-15T21:36:34.379Z,8.63
2017-11-15T21:39:02.644Z,9.00
2017-11-15T21:41:30.927Z,9.70
2017-11-15T21:43:59.198Z,9.97
2017-11-15T21:46:27.524Z,8.13
2017-11-15T21:48:55.773Z,9.80
2017-11-15T21:51:24.035Z,9.10
2017-11-15T21:53:52.291Z,10.23
2017-11-15T21:56:21.328Z,7.50
2017-11-15T21:58:49.575Z,8.13
2017-11-15T22:01:18.612Z,8.40
2017-11-15T22:03:46.907Z,7.27
2017-11-15T22:06:15.180Z,7.70
2017-11-15T22:08:43.429Z,8.27
2017-11-15T22:11:11.697Z,8.40
2017-11-15T22:13:40.703Z,7.20
2017-11-15T22:16:09.038Z,7.77
2017-11-15T22:18:37.279Z,7.07
2017-11-15T22:21:05.537Z,9.00
2017-11-15T22:23:34.581Z,7.60
2017-11-15T22:26:02.821Z,7.13
2017-11-15T22:28:31.965Z,7.30
2017-11-15T22:31:00.254Z,8.27
2017-11-15T22:33:28.503Z,7.40
2017-11-15T22:35:56.753Z,7.03
2017-11-15T22:38:25.016Z,9.23
2017-11-15T22:40:53.260Z,9.00
2017-11-15T22:43:21.510Z,7.50
2017-11-15T22:45:50.515Z,6.97
2017-11-15T22:48:18.828Z,8.20
2017-11-15T22:50:47.073Z,7.60
2017-11-15T22:53:15.350Z,8.47
2017-11-15T22:55:44.363Z,7.60
2017-11-15T22:58:12.617Z,7.00
2017-11-15T23:00:41.475Z,7.40
2017-11-15T23:03:09.746Z,7.17
2017-11-15T23:05:37.998Z,7.50
2017-11-15T23:08:06.310Z,7.60
2017-11-15T23:10:34.569Z,8.17
2017-11-15T23:13:02.827Z,7.70
2017-11-15T23:15:31.869Z,7.90
2017-11-15T23:18:00.157Z,10.03
2017-11-15T23:20:28.432Z,8.50
2017-11-15T23:22:56.729Z,9.50
2017-11-15T23:25:24.976Z,9.00
2017-11-15T23:27:53.255Z,7.93
2017-11-15T23:30:21.513Z,9.50
2017-11-15T23:32:50.520Z,8.90
2017-11-15T23:35:18.827Z,8.40
2017-11-15T23:37:47.080Z,9.63
2017-11-15T23:40:15.350Z,9.83
2017-11-15T23:42:44.395Z,10.00
2017-11-15T23:45:12.655Z,9.07
2017-11-15T23:47:40.904Z,9.37
2017-11-15T23:50:09.957Z,10.23
2017-11-15T23:52:38.201Z,9.13
2017-11-15T23:55:06.476Z,10.20
2017-11-15T23:57:35.495Z,11.70
